Time;durP1;ratioP1;P1;durP2;ratioP2;P2;SDS_P1;SDS_P2;PMS_P1;PMS_P2;Temp;Humidity;BMP_temperature;BMP_pressure;BME280_temperature;BME280_humidity;BME280_pressure;Samples;Min_cycle;Max_cycle;Signal;HPM_P1;HPM_P2
2023/01/13 00:01:17;;;;;;;3.00;2.70;;;11.20;99.90;;;;;;5017541;28;20280;-81
2023/01/13 00:06:28;;;;;;;2.10;1.20;;;11.20;99.90;;;;;;5013753;28;20645;-79
2023/01/13 00:08:56;;;;;;;5.18;3.22;;;11.20;99.90;;;;;;5018197;28;20260;-77
2023/01/13 00:11:25;;;;;;;7.75;4.18;;;11.30;99.90;;;;;;5012343;28;20230;-77
2023/01/13 00:13:54;;;;;;;2.60;1.80;;;11.30;99.90;;;;;;5025432;28;20222;-77
2023/01/13 00:16:22;;;;;;;1.98;1.65;;;11.30;99.90;;;;;;5012075;28;20289;-80
2023/01/13 00:18:50;;;;;;;1.17;1.00;;;11.30;99.90;;;;;;5028236;28;20235;-77
2023/01/13 00:21:19;;;;;;;3.08;2.78;;;11.20;99.90;;;;;;5034598;28;20615;-77
2023/01/13 00:23:50;;;;;;;2.15;1.92;;;11.20;99.90;;;;;;5030091;28;20287;-77
2023/01/13 00:26:19;;;;;;;2.42;1.48;;;11.30;99.90;;;;;;5058150;28;20217;-77
2023/01/13 00:28:46;;;;;;;1.23;1.00;;;11.30;99.90;;;;;;5067587;28;20225;-78
2023/01/13 00:31:17;;;;;;;1.00;0.90;;;11.30;99.90;;;;;;5062322;28;20221;-80
2023/01/13 00:33:45;;;;;;;2.72;1.88;;;11.30;99.90;;;;;;5052346;28;20240;-78
2023/01/13 00:36:17;;;;;;;3.95;3.55;;;11.20;99.90;;;;;;5056712;28;20213;-81
2023/01/13 00:38:45;;;;;;;5.10;1.85;;;11.30;99.90;;;;;;5049794;28;20233;-78
2023/01/13 00:41:14;;;;;;;0.70;0.70;;;11.20;99.90;;;;;;5062593;28;20254;-81
2023/01/13 00:43:41;;;;;;;4.07;3.60;;;11.20;99.90;;;;;;5064701;28;20236;-78
2023/01/13 00:46:09;;;;;;;3.65;2.20;;;11.30;99.90;;;;;;5063739;28;20217;-81
2023/01/13 00:48:39;;;;;;;2.03;1.20;;;11.20;99.90;;;;;;5068484;28;20224;-80
2023/01/13 00:51:08;;;;;;;2.10;1.70;;;11.30;99.90;;;;;;5067302;28;20220;-81
2023/01/13 00:53:42;;;;;;;2.45;1.27;;;11.30;99.90;;;;;;5063637;28;20227;-79
2023/01/13 00:56:16;;;;;;;0.90;0.75;;;11.30;99.90;;;;;;5052019;28;20238;-80
2023/01/13 00:58:46;;;;;;;1.50;1.02;;;11.30;99.90;;;;;;5060374;28;20239;-76
2023/01/13 01:01:17;;;;;;;0.90;0.80;;;11.30;99.90;;;;;;5059815;28;20247;-79
2023/01/13 01:03:55;;;;;;;0.85;0.82;;;11.30;99.90;;;;;;5064951;28;20609;-81
2023/01/13 01:06:25;;;;;;;2.35;2.00;;;11.30;99.90;;;;;;5060391;28;20228;-79
2023/01/13 01:08:55;;;;;;;1.58;1.40;;;11.30;99.90;;;;;;5055611;28;20259;-80
2023/01/13 01:11:28;;;;;;;2.17;1.42;;;11.30;99.90;;;;;;5065138;28;20545;-80
2023/01/13 01:14:00;;;;;;;1.27;1.10;;;11.30;99.90;;;;;;5056675;28;20217;-77
2023/01/13 01:16:33;;;;;;;2.22;1.00;;;11.30;99.90;;;;;;5063181;28;20228;-80
2023/01/13 01:19:04;;;;;;;0.88;0.80;;;11.30;99.90;;;;;;5065297;28;20576;-77
2023/01/13 01:21:32;;;;;;;1.15;0.80;;;11.30;99.90;;;;;;5047150;28;20217;-76
2023/01/13 01:24:03;;;;;;;2.78;0.90;;;11.30;99.90;;;;;;5062260;28;20241;-77
2023/01/13 01:26:31;;;;;;;1.58;0.90;;;11.30;99.90;;;;;;5057051;28;20228;-77
2023/01/13 01:29:03;;;;;;;0.98;0.85;;;11.30;99.90;;;;;;5043157;28;20244;-77
2023/01/13 01:31:32;;;;;;;1.90;0.90;;;11.30;99.90;;;;;;5040037;28;20582;-77
2023/01/13 01:34:01;;;;;;;1.30;1.20;;;11.30;99.90;;;;;;5054672;28;20225;-77
2023/01/13 01:36:30;;;;;;;1.25;1.08;;;11.30;99.90;;;;;;5055939;28;20228;-78
2023/01/13 01:38:59;;;;;;;1.17;0.88;;;11.30;99.90;;;;;;5053926;28;20537;-77
2023/01/13 01:41:30;;;;;;;1.00;0.90;;;11.30;99.90;;;;;;5053494;28;20251;-77
2023/01/13 01:44:01;;;;;;;2.40;1.30;;;11.30;99.90;;;;;;5053658;28;20235;-79
2023/01/13 01:46:30;;;;;;;0.90;0.80;;;11.40;99.90;;;;;;5054904;28;20587;-76
2023/01/13 01:49:11;;;;;;;2.35;0.80;;;11.40;99.90;;;;;;5042751;28;20225;-78
2023/01/13 01:51:44;;;;;;;1.00;0.90;;;11.40;99.90;;;;;;5039802;28;20230;-77
2023/01/13 01:54:15;;;;;;;2.17;1.35;;;11.40;99.90;;;;;;5052870;28;20224;-77
2023/01/13 01:56:43;;;;;;;1.10;0.98;;;11.40;99.90;;;;;;5056188;28;20244;-79
2023/01/13 01:59:16;;;;;;;1.00;0.85;;;11.40;99.90;;;;;;5053556;28;20255;-77
2023/01/13 02:01:44;;;;;;;1.50;0.77;;;11.40;99.90;;;;;;5054869;28;20231;-79
2023/01/13 02:04:15;;;;;;;2.85;2.00;;;11.40;99.90;;;;;;5056624;28;20229;-79
2023/01/13 02:06:46;;;;;;;1.60;1.10;;;11.40;99.90;;;;;;5056361;28;20263;-79
2023/01/13 02:09:15;;;;;;;6.05;2.25;;;11.50;99.90;;;;;;5053364;28;20228;-77
2023/01/13 02:14:28;;;;;;;2.30;1.92;;;11.50;99.90;;;;;;5059305;28;20303;-80
2023/01/13 02:17:11;;;;;;;2.88;1.20;;;11.60;99.90;;;;;;5058770;28;20244;-77
2023/01/13 02:20:26;;;;;;;1.85;1.45;;;11.50;99.90;;;;;;5057998;28;20246;-77
2023/01/13 02:26:46;;;;;;;1.00;0.90;;;11.50;99.90;;;;;;5058401;28;20274;-77
2023/01/13 02:32:30;;;;;;;1.10;1.00;;;11.50;99.90;;;;;;5063291;28;20300;-80
2023/01/13 02:35:07;;;;;;;2.00;1.10;;;11.50;99.90;;;;;;5059930;28;20247;-80
2023/01/13 02:37:40;;;;;;;2.15;0.85;;;11.60;99.90;;;;;;5044439;28;20257;-78
2023/01/13 02:40:13;;;;;;;1.55;0.77;;;11.60;99.90;;;;;;5059305;28;20236;-78
2023/01/13 02:45:38;;;;;;;1.10;0.82;;;11.60;99.90;;;;;;5058676;28;20296;-80
2023/01/13 02:48:08;;;;;;;1.88;1.00;;;11.60;99.90;;;;;;5065530;28;20232;-80
2023/01/13 02:50:39;;;;;;;2.65;0.98;;;11.50;99.90;;;;;;5064121;28;20534;-81
2023/01/13 02:53:15;;;;;;;0.80;0.77;;;11.60;99.90;;;;;;5065300;28;20244;-81
2023/01/13 02:55:46;;;;;;;1.38;0.80;;;11.60;99.90;;;;;;5064123;28;20248;-80
2023/01/13 02:58:18;;;;;;;1.10;0.82;;;11.60;99.90;;;;;;5063600;28;20220;-80
2023/01/13 03:00:50;;;;;;;1.30;1.00;;;11.60;99.90;;;;;;5051725;28;20229;-78
2023/01/13 03:03:17;;;;;;;1.02;0.80;;;11.60;99.90;;;;;;5057807;28;20236;-80
2023/01/13 03:05:46;;;;;;;3.03;1.20;;;11.60;99.90;;;;;;5070794;28;20677;-80
2023/01/13 03:08:38;;;;;;;1.05;0.80;;;11.60;99.90;;;;;;5071645;28;20241;-80
2023/01/13 03:11:08;;;;;;;1.75;0.70;;;11.60;99.90;;;;;;5061421;28;20291;-80
2023/01/13 03:13:56;;;;;;;1.08;0.90;;;11.60;99.90;;;;;;5068561;28;20280;-78
2023/01/13 03:16:39;;;;;;;0.70;0.60;;;11.60;99.90;;;;;;5065813;28;20244;-78
2023/01/13 03:19:21;;;;;;;3.10;0.98;;;11.70;99.90;;;;;;5065010;28;20232;-79
2023/01/13 03:21:55;;;;;;;0.98;0.70;;;11.60;99.90;;;;;;5061824;28;20288;-76
2023/01/13 03:24:28;;;;;;;0.95;0.70;;;11.60;99.90;;;;;;5064469;28;20227;-77
2023/01/13 03:27:02;;;;;;;0.60;0.60;;;11.60;99.90;;;;;;5066800;28;20216;-77
2023/01/13 03:29:35;;;;;;;0.95;0.60;;;11.60;99.90;;;;;;5064858;28;20250;-77
2023/01/13 03:32:08;;;;;;;1.98;0.73;;;11.60;99.90;;;;;;5061699;28;20221;-77
2023/01/13 03:34:43;;;;;;;0.68;0.65;;;11.60;99.90;;;;;;5058305;28;20235;-77
2023/01/13 03:37:11;;;;;;;0.95;0.70;;;11.60;99.90;;;;;;5055156;28;20224;-77
2023/01/13 03:39:41;;;;;;;0.70;0.70;;;11.60;99.90;;;;;;5054925;28;20312;-77
2023/01/13 03:42:11;;;;;;;0.73;0.70;;;11.70;99.90;;;;;;5053769;28;20283;-78
2023/01/13 03:44:42;;;;;;;1.08;0.98;;;11.70;99.90;;;;;;5053482;28;21064;-78
2023/01/13 03:47:20;;;;;;;0.80;0.80;;;11.70;99.90;;;;;;5054193;28;20403;-78
2023/01/13 03:49:54;;;;;;;0.65;0.65;;;11.70;99.90;;;;;;5052844;28;20273;-80
2023/01/13 03:52:26;;;;;;;0.77;0.70;;;11.70;99.90;;;;;;5054241;28;20323;-80
2023/01/13 03:54:58;;;;;;;1.70;1.60;;;11.80;99.90;;;;;;5053372;28;20239;-78
2023/01/13 03:57:32;;;;;;;0.80;0.80;;;11.80;99.90;;;;;;5053292;28;20228;-78
2023/01/13 04:00:02;;;;;;;0.80;0.70;;;11.80;99.90;;;;;;5052565;28;20315;-78
2023/01/13 04:02:49;;;;;;;0.77;0.77;;;11.80;99.90;;;;;;5054190;28;20243;-78
2023/01/13 04:05:19;;;;;;;0.90;0.70;;;11.80;99.90;;;;;;5055263;28;20224;-78
2023/01/13 04:07:53;;;;;;;0.63;0.60;;;11.80;99.90;;;;;;5058064;28;20267;-78
2023/01/13 04:10:24;;;;;;;1.00;0.90;;;11.80;99.90;;;;;;5056389;28;20224;-80
2023/01/13 04:13:05;;;;;;;0.85;0.70;;;11.80;99.90;;;;;;5058902;28;20737;-78
2023/01/13 04:15:39;;;;;;;1.23;0.70;;;11.80;99.90;;;;;;5058220;28;20220;-80
2023/01/13 04:18:16;;;;;;;1.55;0.80;;;11.80;99.90;;;;;;5055730;28;20220;-80
2023/01/13 04:20:44;;;;;;;0.70;0.60;;;11.80;99.90;;;;;;5057452;28;20224;-80
2023/01/13 04:23:12;;;;;;;1.10;0.60;;;11.80;99.90;;;;;;5057605;28;20217;-80
2023/01/13 04:25:40;;;;;;;1.02;0.68;;;11.70;99.90;;;;;;5028290;28;20706;-80
2023/01/13 04:28:08;;;;;;;0.80;0.70;;;11.70;99.90;;;;;;5057128;28;20229;-78
2023/01/13 04:30:36;;;;;;;0.60;0.50;;;11.80;99.90;;;;;;5056080;28;20224;-78
2023/01/13 04:33:04;;;;;;;0.70;0.70;;;11.70;99.90;;;;;;5056417;28;20581;-78
2023/01/13 04:35:33;;;;;;;1.27;1.00;;;11.60;99.90;;;;;;5055343;28;20220;-78
2023/01/13 04:38:01;;;;;;;0.70;0.60;;;11.50;99.90;;;;;;5055924;28;20563;-77
2023/01/13 04:40:28;;;;;;;1.30;0.88;;;11.60;99.90;;;;;;5055464;28;20618;-77
2023/01/13 04:42:56;;;;;;;1.33;0.63;;;11.50;99.90;;;;;;5056880;28;20676;-78
2023/01/13 04:45:23;;;;;;;0.82;0.70;;;11.50;99.90;;;;;;5057139;28;20252;-78
2023/01/13 04:47:50;;;;;;;0.98;0.60;;;11.50;99.90;;;;;;5066912;28;20236;-80
2023/01/13 04:50:18;;;;;;;1.25;0.80;;;11.50;99.90;;;;;;5067852;28;20225;-80
2023/01/13 04:52:48;;;;;;;0.60;0.60;;;11.50;99.90;;;;;;5061717;28;20256;-78
2023/01/13 04:55:15;;;;;;;1.13;0.98;;;11.50;99.90;;;;;;5056740;28;20220;-78
2023/01/13 04:57:42;;;;;;;1.88;0.95;;;11.50;99.90;;;;;;5055342;28;20606;-78
2023/01/13 05:00:13;;;;;;;1.08;0.85;;;11.50;99.90;;;;;;5055726;28;20776;-78
2023/01/13 05:02:43;;;;;;;0.80;0.80;;;11.50;99.90;;;;;;5053763;28;20228;-78
2023/01/13 05:05:11;;;;;;;0.95;0.60;;;11.50;99.90;;;;;;5055769;28;20233;-77
2023/01/13 05:07:40;;;;;;;0.80;0.70;;;11.50;99.90;;;;;;5055931;28;20224;-79
2023/01/13 05:10:11;;;;;;;1.92;1.55;;;11.40;99.90;;;;;;5042998;28;20241;-80
2023/01/13 05:18:07;;;;;;;1.00;0.80;;;11.50;99.90;;;;;;5055348;28;20227;-81
2023/01/13 05:20:34;;;;;;;1.83;0.80;;;11.50;99.90;;;;;;5054471;28;20224;-80
2023/01/13 05:25:49;;;;;;;0.77;0.77;;;11.50;99.90;;;;;;5055447;28;20682;-78
2023/01/13 05:28:16;;;;;;;0.85;0.85;;;11.60;99.90;;;;;;5054643;28;20224;-77
2023/01/13 05:30:45;;;;;;;0.70;0.68;;;11.60;99.90;;;;;;5054437;28;20337;-77
2023/01/13 05:33:14;;;;;;;0.60;0.60;;;11.70;99.90;;;;;;5054915;28;20221;-78
2023/01/13 05:35:43;;;;;;;1.55;1.00;;;11.70;99.90;;;;;;5054472;28;20308;-78
2023/01/13 05:38:15;;;;;;;0.75;0.70;;;11.80;99.90;;;;;;5054585;28;20232;-79
2023/01/13 05:43:35;;;;;;;0.80;0.80;;;11.80;99.90;;;;;;5054199;28;20249;-77
2023/01/13 05:46:04;;;;;;;1.42;0.80;;;11.80;99.90;;;;;;5053677;28;20308;-77
2023/01/13 05:48:33;;;;;;;2.17;1.20;;;11.80;99.90;;;;;;5054458;28;20255;-79
2023/01/13 05:51:05;;;;;;;1.25;1.00;;;11.80;99.90;;;;;;5055208;28;20334;-80
2023/01/13 05:53:33;;;;;;;2.15;1.40;;;11.90;99.90;;;;;;5054007;28;20235;-80
2023/01/13 05:56:03;;;;;;;4.50;2.70;;;11.90;99.90;;;;;;5053846;28;20244;-77
2023/01/13 05:58:30;;;;;;;3.28;2.22;;;11.90;99.90;;;;;;5053980;28;20224;-80
2023/01/13 06:01:02;;;;;;;3.10;2.25;;;11.90;99.90;;;;;;5045845;28;20675;-80
2023/01/13 06:03:29;;;;;;;4.65;2.45;;;11.90;99.90;;;;;;5052202;28;20239;-79
2023/01/13 06:06:00;;;;;;;4.40;2.67;;;11.90;99.90;;;;;;5055043;28;20578;-81
2023/01/13 06:08:27;;;;;;;5.07;1.90;;;11.90;99.90;;;;;;5054463;28;20666;-80
2023/01/13 06:10:54;;;;;;;3.25;2.20;;;11.90;99.90;;;;;;5053482;28;20252;-80
2023/01/13 06:13:25;;;;;;;2.72;1.90;;;11.90;99.90;;;;;;5053730;28;20243;-79
2023/01/13 06:15:52;;;;;;;2.83;1.73;;;11.90;99.90;;;;;;5053955;28;20541;-77
2023/01/13 06:18:21;;;;;;;1.92;1.73;;;11.90;99.90;;;;;;5054023;28;20311;-79
2023/01/13 06:20:48;;;;;;;2.08;1.88;;;11.90;99.90;;;;;;5053055;28;20271;-78
2023/01/13 06:23:15;;;;;;;3.58;2.00;;;11.80;99.90;;;;;;5054006;28;20667;-79
2023/01/13 06:25:47;;;;;;;2.78;2.33;;;11.80;99.90;;;;;;5053073;28;20327;-77
2023/01/13 06:28:15;;;;;;;2.60;1.70;;;11.80;99.90;;;;;;5052503;28;20300;-77
2023/01/13 06:30:45;;;;;;;2.85;2.40;;;11.80;99.90;;;;;;5052935;28;20244;-77
2023/01/13 06:33:15;;;;;;;1.95;1.75;;;11.80;99.90;;;;;;5053205;28;20216;-77
2023/01/13 06:35:50;;;;;;;2.30;1.80;;;11.80;99.90;;;;;;5052445;28;20220;-77
2023/01/13 06:38:20;;;;;;;2.70;1.90;;;11.80;99.90;;;;;;5053286;28;20262;-77
2023/01/13 06:40:47;;;;;;;4.82;1.90;;;11.80;99.90;;;;;;5053149;28;20233;-76
2023/01/13 06:43:16;;;;;;;1.95;1.70;;;11.80;99.90;;;;;;5053149;28;20738;-77
2023/01/13 06:45:48;;;;;;;1.85;1.10;;;11.80;99.90;;;;;;5053209;28;20224;-80
2023/01/13 06:48:19;;;;;;;1.23;1.13;;;11.80;99.90;;;;;;5053849;28;20284;-77
2023/01/13 06:50:49;;;;;;;1.42;1.17;;;11.70;99.90;;;;;;5053961;28;20262;-78
2023/01/13 06:53:16;;;;;;;1.33;1.23;;;11.80;99.90;;;;;;5053143;28;20217;-77
2023/01/13 06:55:43;;;;;;;1.48;1.00;;;11.80;99.90;;;;;;5052584;28;20229;-80
2023/01/13 06:58:10;;;;;;;2.42;1.30;;;11.80;99.90;;;;;;5053082;28;20339;-78
2023/01/13 07:00:37;;;;;;;1.10;1.00;;;11.80;99.90;;;;;;5052069;28;20239;-78
2023/01/13 07:03:12;;;;;;;1.58;0.95;;;11.80;99.90;;;;;;5053441;28;20754;-80
2023/01/13 07:05:40;;;;;;;0.82;0.82;;;11.80;99.90;;;;;;5052661;28;20254;-78
2023/01/13 07:08:09;;;;;;;0.90;0.82;;;11.70;99.90;;;;;;5053074;28;20244;-77
2023/01/13 07:10:37;;;;;;;1.05;0.95;;;11.70;99.90;;;;;;5053065;28;20229;-77
2023/01/13 07:16:03;;;;;;;1.30;1.10;;;11.70;99.90;;;;;;5052349;28;20227;-80
2023/01/13 07:18:34;;;;;;;0.80;0.70;;;11.60;99.90;;;;;;5053433;28;20250;-80
2023/01/13 07:21:04;;;;;;;0.98;0.65;;;11.60;99.90;;;;;;5052755;28;20220;-77
2023/01/13 07:23:34;;;;;;;2.67;0.90;;;11.70;99.90;;;;;;5053924;28;20263;-80
2023/01/13 07:26:02;;;;;;;1.45;1.30;;;11.70;99.90;;;;;;5052219;28;20263;-80
2023/01/13 07:28:30;;;;;;;3.08;2.60;;;11.70;99.90;;;;;;5053750;28;20220;-79
2023/01/13 07:30:58;;;;;;;6.28;5.07;;;11.70;99.90;;;;;;5024882;28;20229;-77
2023/01/13 07:33:27;;;;;;;5.63;4.18;;;11.70;99.90;;;;;;5053287;28;20216;-77
2023/01/13 07:35:57;;;;;;;5.05;4.50;;;11.70;99.90;;;;;;5033002;28;20605;-79
2023/01/13 07:38:35;;;;;;;5.75;3.90;;;11.70;99.90;;;;;;5047039;28;20220;-77
2023/01/13 07:43:30;;;;;;;2.53;2.00;;;11.70;99.90;;;;;;5055678;28;20266;-79
2023/01/13 07:43:50;;;;;;;2.40;2.15;;;11.70;99.90;;;;;;5056853;28;20221;-79
2023/01/13 07:46:18;;;;;;;2.75;2.55;;;11.70;99.90;;;;;;5056278;28;20282;-77
2023/01/13 07:48:48;;;;;;;3.30;2.30;;;11.70;99.90;;;;;;5057185;28;20692;-76
2023/01/13 07:51:18;;;;;;;2.97;2.40;;;11.70;99.90;;;;;;5053097;28;20216;-77
2023/01/13 07:53:45;;;;;;;1.27;1.17;;;11.70;99.90;;;;;;5056618;28;20286;-77
2023/01/13 07:56:14;;;;;;;1.10;0.85;;;11.80;99.90;;;;;;5048636;28;20228;-78
2023/01/13 07:58:41;;;;;;;1.65;1.15;;;11.70;99.90;;;;;;5059461;28;20244;-79
2023/01/13 08:01:08;;;;;;;1.08;0.90;;;11.70;99.90;;;;;;5057035;28;20220;-76
2023/01/13 08:03:35;;;;;;;1.10;1.00;;;11.70;99.90;;;;;;5056735;28;20318;-78
2023/01/13 08:06:03;;;;;;;1.10;0.70;;;11.70;99.90;;;;;;5058870;28;20523;-79
2023/01/13 08:08:34;;;;;;;1.30;0.82;;;11.60;99.90;;;;;;5061078;28;20224;-81
2023/01/13 08:11:02;;;;;;;0.93;0.80;;;11.60;99.90;;;;;;5060005;28;20332;-77
2023/01/13 08:13:33;;;;;;;2.85;0.98;;;11.60;99.90;;;;;;5057030;28;20220;-77
2023/01/13 08:16:03;;;;;;;1.10;0.95;;;11.60;99.90;;;;;;5058271;28;20322;-80
2023/01/13 08:18:31;;;;;;;1.13;1.02;;;11.60;99.90;;;;;;5055853;28;20220;-78
2023/01/13 08:21:02;;;;;;;1.90;1.10;;;11.60;99.90;;;;;;5056122;28;20718;-78
2023/01/13 08:23:38;;;;;;;0.88;0.70;;;11.60;99.90;;;;;;5062252;28;20240;-80
2023/01/13 08:26:08;;;;;;;2.42;1.48;;;11.70;99.90;;;;;;5042367;28;20233;-80
2023/01/13 08:28:47;;;;;;;0.90;0.80;;;11.70;99.90;;;;;;5031713;28;20228;-79
2023/01/13 08:31:16;;;;;;;0.98;0.70;;;11.70;99.90;;;;;;5063962;28;20678;-79
2023/01/13 08:33:44;;;;;;;1.60;0.90;;;11.70;99.90;;;;;;5065895;28;20224;-79
2023/01/13 08:36:17;;;;;;;1.02;0.90;;;11.70;99.90;;;;;;5057036;28;20229;-78
2023/01/13 08:38:44;;;;;;;1.45;0.70;;;11.70;99.90;;;;;;5056341;28;20291;-78
2023/01/13 08:41:57;;;;;;;1.05;0.70;;;11.70;99.90;;;;;;5062657;28;20229;-80
2023/01/13 08:44:28;;;;;;;11.75;5.10;;;11.80;99.90;;;;;;5060340;28;20223;-80
2023/01/13 08:46:55;;;;;;;5.07;3.50;;;11.80;99.90;;;;;;5067056;28;20327;-80
2023/01/13 08:49:23;;;;;;;3.30;2.70;;;11.70;99.90;;;;;;5056550;28;20224;-78
2023/01/13 08:51:50;;;;;;;2.25;2.05;;;11.70;99.90;;;;;;5055935;28;20259;-80
2023/01/13 08:54:20;;;;;;;6.10;3.00;;;11.70;99.90;;;;;;5056163;28;20252;-80
2023/01/13 08:56:47;;;;;;;3.42;2.50;;;11.70;99.90;;;;;;5053644;28;20235;-81
2023/01/13 08:59:15;;;;;;;1.73;1.63;;;11.80;99.90;;;;;;5055631;28;20224;-78
2023/01/13 09:01:44;;;;;;;1.00;0.90;;;11.80;99.90;;;;;;5056552;28;20291;-80
2023/01/13 09:04:17;;;;;;;1.98;0.90;;;11.80;99.90;;;;;;5055238;28;20231;-78
2023/01/13 09:06:44;;;;;;;1.90;0.93;;;11.80;99.90;;;;;;5055046;28;20247;-78
2023/01/13 09:09:11;;;;;;;1.23;1.10;;;11.80;99.90;;;;;;5055591;28;20230;-78
2023/01/13 09:14:29;;;;;;;3.70;1.27;;;11.80;99.90;;;;;;5056011;28;20605;-78
2023/01/13 09:16:58;;;;;;;1.45;0.90;;;11.80;99.90;;;;;;5054284;28;20223;-77
2023/01/13 09:19:25;;;;;;;1.10;0.90;;;11.80;99.90;;;;;;5055562;28;20228;-80
2023/01/13 09:21:55;;;;;;;1.63;1.00;;;11.80;99.90;;;;;;5032579;28;20615;-81
2023/01/13 09:24:22;;;;;;;1.23;1.10;;;11.90;99.90;;;;;;5049771;28;20227;-78
2023/01/13 09:26:52;;;;;;;1.65;1.10;;;11.90;99.90;;;;;;5027969;28;20317;-80
2023/01/13 09:29:19;;;;;;;1.58;1.10;;;11.90;99.90;;;;;;5055757;28;20258;-80
2023/01/13 09:31:48;;;;;;;2.17;0.80;;;11.90;99.90;;;;;;5054864;28;20224;-80
2023/01/13 09:37:07;;;;;;;1.08;0.90;;;11.80;99.90;;;;;;5054579;28;20220;-80
2023/01/13 09:39:34;;;;;;;2.50;1.02;;;11.80;99.90;;;;;;5054824;28;20252;-80
2023/01/13 09:45:00;;;;;;;3.35;1.42;;;11.80;99.90;;;;;;5036078;28;20233;-79
2023/01/13 09:47:51;;;;;;;1.80;1.30;;;11.80;99.90;;;;;;5049153;28;20252;-77
2023/01/13 09:50:44;;;;;;;1.90;1.05;;;11.80;99.90;;;;;;5054150;28;20216;-78
2023/01/13 09:53:20;;;;;;;4.00;1.40;;;11.80;99.90;;;;;;5054255;28;20224;-79
2023/01/13 09:55:48;;;;;;;1.55;1.00;;;11.80;99.90;;;;;;5054839;28;20227;-77
2023/01/13 09:58:21;;;;;;;1.77;0.95;;;11.80;99.90;;;;;;5054091;28;20296;-77
2023/01/13 10:00:57;;;;;;;3.55;1.02;;;11.80;99.90;;;;;;5053743;28;20248;-76
2023/01/13 10:03:26;;;;;;;1.55;1.08;;;11.70;99.90;;;;;;5054148;28;20226;-77
2023/01/13 10:06:03;;;;;;;1.70;1.00;;;11.70;99.90;;;;;;5054891;28;20224;-77
2023/01/13 10:08:33;;;;;;;1.30;1.02;;;11.70;99.90;;;;;;5054855;28;20220;-80
2023/01/13 10:13:12;;;;;;;1.95;1.70;;;11.70;99.90;;;;;;5053975;28;20630;-77
2023/01/13 10:13:54;;;;;;;2.75;2.15;;;11.70;99.90;;;;;;5054617;28;20235;-79
2023/01/13 10:16:40;;;;;;;;;;;;;;;;;;;;;
2023/01/13 10:19:17;;;;;;;4.63;2.90;;;11.70;99.90;;;;;;5053586;28;20224;-79
2023/01/13 10:22:14;;;;;;;1.30;1.20;;;11.70;99.90;;;;;;5053958;28;20403;-77
2023/01/13 10:25:19;;;;;;;1.95;1.20;;;11.60;99.90;;;;;;5054501;28;20307;-80
2023/01/13 10:27:48;;;;;;;1.55;1.00;;;11.50;99.90;;;;;;5031070;28;20297;-80
2023/01/13 10:30:23;;;;;;;5.55;1.52;;;11.60;99.90;;;;;;5052853;28;20227;-77
2023/01/13 10:32:54;;;;;;;5.45;1.50;;;11.50;99.90;;;;;;5052840;28;20568;-77
2023/01/13 10:36:03;;;;;;;1.60;1.00;;;11.60;99.90;;;;;;5045144;28;20225;-77
2023/01/13 10:38:40;;;;;;;1.27;1.00;;;11.60;99.90;;;;;;4996668;28;20254;-77
2023/01/13 10:41:20;;;;;;;1.63;1.30;;;11.60;99.90;;;;;;5054065;28;20220;-79
2023/01/13 10:44:00;;;;;;;1.25;1.05;;;11.60;99.90;;;;;;5056213;28;20225;-77
2023/01/13 10:46:29;;;;;;;1.48;1.00;;;11.60;99.90;;;;;;5053204;28;20666;-78
2023/01/13 10:48:58;;;;;;;2.35;1.20;;;11.60;99.90;;;;;;5057049;28;20228;-80
2023/01/13 10:51:27;;;;;;;1.00;0.88;;;11.60;99.90;;;;;;5058033;28;20224;-80
2023/01/13 10:54:01;;;;;;;1.13;0.90;;;11.60;99.90;;;;;;5054730;28;20263;-77
2023/01/13 10:56:33;;;;;;;2.22;1.25;;;11.50;99.90;;;;;;5054294;28;20748;-77
2023/01/13 10:59:17;;;;;;;1.40;0.85;;;11.50;99.90;;;;;;5052995;28;20287;-79
2023/01/13 11:02:09;;;;;;;3.70;1.08;;;11.50;99.90;;;;;;5052276;28;20227;-79
2023/01/13 11:04:38;;;;;;;2.47;1.80;;;11.50;99.90;;;;;;5063950;28;20311;-79
2023/01/13 11:07:20;;;;;;;1.45;1.30;;;11.50;99.90;;;;;;5052982;28;20235;-76
2023/01/13 11:09:48;;;;;;;4.47;1.23;;;11.50;99.90;;;;;;5052801;28;20676;-78
2023/01/13 11:12:34;;;;;;;8.05;5.25;;;11.40;99.90;;;;;;5052938;28;20225;-79
2023/01/13 11:15:04;;;;;;;5.10;4.10;;;11.40;99.90;;;;;;5054416;28;20251;-78
2023/01/13 11:17:39;;;;;;;5.70;4.75;;;11.40;99.90;;;;;;5037084;28;20252;-77
2023/01/13 11:20:20;;;;;;;1.63;1.52;;;11.40;99.90;;;;;;5042173;28;20736;-77
2023/01/13 11:22:50;;;;;;;1.25;1.10;;;11.40;99.90;;;;;;5052927;28;20320;-77
2023/01/13 11:25:22;;;;;;;1.70;1.10;;;11.40;99.90;;;;;;5052300;28;20243;-77
2023/01/13 11:27:57;;;;;;;2.10;1.10;;;11.50;99.90;;;;;;5052497;28;20411;-79
2023/01/13 11:30:31;;;;;;;3.38;1.13;;;11.50;99.90;;;;;;5043649;28;20235;-79
2023/01/13 11:33:15;;;;;;;2.75;1.38;;;11.50;99.90;;;;;;5052876;28;20224;-79
2023/01/13 11:35:47;;;;;;;0.80;0.80;;;11.50;99.90;;;;;;5052641;28;20224;-79
2023/01/13 11:38:27;;;;;;;4.03;1.20;;;11.50;99.90;;;;;;5052144;28;20235;-79
2023/01/13 11:41:04;;;;;;;2.10;1.15;;;11.40;99.90;;;;;;5042900;28;20286;-79
2023/01/13 11:43:37;;;;;;;2.65;1.20;;;11.40;99.90;;;;;;5052532;28;20267;-79
2023/01/13 11:46:06;;;;;;;1.95;1.02;;;11.40;99.90;;;;;;5051226;28;20220;-76
2023/01/13 11:48:41;;;;;;;3.58;1.17;;;11.50;99.90;;;;;;5052548;28;20256;-79
2023/01/13 11:51:38;;;;;;;1.17;1.00;;;11.50;99.90;;;;;;5039777;28;20300;-76
2023/01/13 11:54:46;;;;;;;1.27;0.90;;;11.50;99.90;;;;;;5010060;28;20546;-77
2023/01/13 11:57:33;;;;;;;3.80;1.13;;;11.50;99.90;;;;;;5050153;28;20272;-76
2023/01/13 12:00:28;;;;;;;5.07;1.45;;;11.60;99.90;;;;;;5051847;28;20275;-79
2023/01/13 12:03:12;;;;;;;3.40;1.25;;;11.60;99.90;;;;;;5050284;28;20309;-76
2023/01/13 12:05:43;;;;;;;1.60;1.10;;;11.70;99.90;;;;;;5052539;28;20560;-77
2023/01/13 12:08:17;;;;;;;2.70;1.60;;;11.70;99.90;;;;;;5050583;28;20229;-77
2023/01/13 12:10:58;;;;;;;1.50;1.40;;;11.70;99.90;;;;;;5052040;28;20255;-79
2023/01/13 12:13:43;;;;;;;2.67;1.77;;;11.70;99.90;;;;;;5052203;28;20274;-79
2023/01/13 12:16:20;;;;;;;4.40;1.50;;;11.80;99.90;;;;;;5050571;28;20255;-79
2023/01/13 12:19:03;;;;;;;3.90;2.42;;;11.80;99.90;;;;;;5052559;28;20231;-78
2023/01/13 12:21:36;;;;;;;3.63;2.25;;;11.80;99.90;;;;;;5050867;28;20294;-79
2023/01/13 12:24:14;;;;;;;3.90;1.63;;;11.80;99.90;;;;;;5051992;28;20612;-76
2023/01/13 12:26:45;;;;;;;2.38;1.35;;;11.80;99.90;;;;;;5053973;28;20228;-76
2023/01/13 12:29:17;;;;;;;2.78;1.80;;;11.80;99.90;;;;;;5055907;28;20307;-79
2023/01/13 12:31:47;;;;;;;3.35;1.58;;;11.90;99.90;;;;;;5055715;28;20220;-77
2023/01/13 12:34:33;;;;;;;3.83;1.45;;;11.90;99.90;;;;;;5055853;28;20250;-76
2023/01/13 12:37:10;;;;;;;4.60;1.73;;;11.90;99.90;;;;;;5056276;28;20235;-79
2023/01/13 12:39:51;;;;;;;2.97;1.60;;;11.90;99.90;;;;;;5056884;28;20221;-77
2023/01/13 12:45:28;;;;;;;3.10;2.80;;;11.90;99.90;;;;;;5055551;28;20231;-77
2023/01/13 12:47:57;;;;;;;3.85;1.83;;;11.90;99.90;;;;;;5058116;28;20236;-77
2023/01/13 12:50:39;;;;;;;2.65;1.55;;;11.90;99.90;;;;;;5055762;28;20228;-79
2023/01/13 12:53:31;;;;;;;3.70;2.08;;;11.90;99.90;;;;;;5056155;28;20299;-79
2023/01/13 12:56:26;;;;;;;4.28;2.15;;;11.90;99.90;;;;;;5045433;28;20720;-77
2023/01/13 12:59:31;;;;;;;3.15;1.98;;;11.90;99.90;;;;;;5056499;28;20255;-77
2023/01/13 13:02:36;;;;;;;5.68;2.03;;;11.90;99.90;;;;;;5056252;28;20282;-78
2023/01/13 13:05:34;;;;;;;2.80;1.90;;;11.90;99.90;;;;;;5052908;28;20221;-79
2023/01/13 13:08:11;;;;;;;3.67;2.10;;;11.90;99.90;;;;;;5042007;28;20374;-77
2023/01/13 13:14:15;;;;;;;5.85;2.35;;;11.90;99.90;;;;;;5056625;28;20419;-76
2023/01/13 13:16:53;;;;;;;3.47;1.80;;;11.90;99.90;;;;;;5046557;28;20223;-76
2023/01/13 13:19:46;;;;;;;2.58;1.20;;;11.90;99.90;;;;;;5056926;28;20220;-76
2023/01/13 13:22:39;;;;;;;3.40;1.40;;;11.90;99.90;;;;;;5060477;28;20243;-80
2023/01/13 13:25:31;;;;;;;5.30;1.30;;;11.90;99.90;;;;;;5062666;28;20221;-78
2023/01/13 13:28:16;;;;;;;4.22;1.48;;;11.90;99.90;;;;;;5062651;28;20228;-78
2023/01/13 13:31:01;;;;;;;2.92;1.10;;;11.90;99.90;;;;;;5067934;28;20299;-78
2023/01/13 13:33:45;;;;;;;4.30;2.05;;;11.90;99.90;;;;;;5059795;28;20255;-80
2023/01/13 13:36:41;;;;;;;2.95;1.35;;;11.90;99.90;;;;;;5057788;28;20208;-79
2023/01/13 13:47:44;;;;;;;3.85;1.55;;;11.90;99.90;;;;;;5058219;28;20259;-79
2023/01/13 13:50:19;;;;;;;3.65;1.27;;;11.90;99.90;;;;;;5057239;28;20228;-79
2023/01/13 13:52:54;;;;;;;2.97;1.45;;;11.90;99.90;;;;;;5075286;28;20216;-79
2023/01/13 13:55:30;;;;;;;5.18;1.60;;;11.90;99.90;;;;;;5062995;28;20216;-77
2023/01/13 13:58:04;;;;;;;3.53;1.33;;;12.00;99.90;;;;;;5054533;28;20282;-79
2023/01/13 14:00:35;;;;;;;2.00;1.23;;;11.90;99.90;;;;;;5046254;28;20229;-80
2023/01/13 14:03:05;;;;;;;7.43;2.47;;;11.90;99.90;;;;;;5057385;28;20274;-79
2023/01/13 14:05:34;;;;;;;2.67;1.45;;;11.90;99.90;;;;;;5071256;28;20300;-78
2023/01/13 14:08:13;;;;;;;5.25;1.00;;;11.80;99.90;;;;;;5063656;28;20243;-80
2023/01/13 14:10:43;;;;;;;1.63;1.30;;;11.90;99.90;;;;;;5061372;28;20679;-79
2023/01/13 14:13:15;;;;;;;2.85;1.20;;;11.90;99.90;;;;;;5059483;28;20220;-78